Terminal Aerodrome Forecast
Issued by NWS Binghamton, NY

Home | Current Version | Previous Version | Text Only | Print | Product List | Glossary On
Versions: 1 2 3 4 5 6 7 8 9 10 11 12 13 14 15 16 17 18 19 20 21 22 23 24 25 26 27
000
FTUS41 KBGM 020900 AAA
TAFBGM
TAF AMD
KBGM 020907Z 0209/0306 21008KT P6SM SCT040 BKN100
      TEMPO 0209/0212 3SM BR OVC015
     FM021200 22010KT P6SM BKN050
      TEMPO 0212/0214 3SM BR OVC015
     FM022100 24010KT P6SM BKN040
      TEMPO 0221/0223 3SM TSRA BR OVC025CB
     FM022300 31008KT P6SM SCT015 BKN060
     FM030100 27005KT P6SM BKN015=

USA.gov is the U.S. government's official web portal to all federal, state and local government web resources and services.